GMMN/CMN METAR and TAF weather

Enter ICAO airport designator
Station Type Date Time Source
GMMN METAR 2019/04/25 21:30 UTC NOAA

GMMN 252130Z 04007KT 010V080 9999 BKN016 15/13 Q1023 NOSIG


Station Type Date Time Source
GMMN Decoded METAR 2019/04/25 21:30 UTC NOAA

Nouasseur, Morocco (GMMN) 33-22N 007-35W 206M
Apr 25, 2019 - 05:30 PM EDT / 2019.04.25 2130 UTC
Wind: from the NE (040 degrees) at 8 MPH (7 KT) (direction variable):0
Visibility: greater than 7 mile(s):0
Sky conditions: mostly cloudy
Temperature: 59 F (15 C)
Dew Point: 55 F (13 C)
Relative Humidity: 87%
Pressure (altimeter): 30.21 in. Hg (1023 hPa)
ob: GMMN 252130Z 04007KT 010V080 9999 BKN016 15/13 Q1023 NOSIG
cycle: 21

Station Type Date Time Source
GMMN TAF 2019/04/25 18:48 UTC NOAA

TAF TAF GMMN 251700Z 2518/2624 34014KT 9999 SCT016 SCT026
BECMG 2517/2519 04012KT
TEMPO 2612/2615 03016G26KT

Example: see airport list